Time;durP1;ratioP1;P1;durP2;ratioP2;P2;SDS_P1;SDS_P2;PMS_P1;PMS_P2;Temp;Humidity;BMP_temperature;BMP_pressure;BME280_temperature;BME280_humidity;BME280_pressure;Samples;Min_cycle;Max_cycle;Signal;HPM_P1;HPM_P2
2021/10/10 00:00:22;;;;;;;4.00;3.63;;;;;;;4.88;100.00;101943.16;5073506;28;20166;-70
2021/10/10 00:02:47;;;;;;;3.67;3.33;;;;;;;4.74;100.00;101935.25;5073273;28;20170;-70
2021/10/10 00:05:12;;;;;;;3.65;3.35;;;;;;;4.72;100.00;101942.81;5046397;28;1274337;-70
2021/10/10 00:07:41;;;;;;;5.83;4.00;;;;;;;4.75;100.00;101936.09;5074361;28;20719;-71
2021/10/10 00:10:07;;;;;;;5.17;3.27;;;;;;;4.78;100.00;101944.59;5092532;28;20170;-71
2021/10/10 00:12:33;;;;;;;4.33;3.47;;;;;;;4.77;100.00;101948.34;5092368;28;20165;-70
2021/10/10 00:14:58;;;;;;;5.30;4.80;;;;;;;4.78;100.00;101944.59;5092286;28;20644;-70
2021/10/10 00:17:24;;;;;;;4.23;3.83;;;;;;;4.82;100.00;101952.22;5071998;28;20213;-71
2021/10/10 00:19:49;;;;;;;5.60;4.20;;;;;;;4.70;100.00;101953.03;5074070;28;20251;-70
2021/10/10 00:22:14;;;;;;;4.43;4.03;;;;;;;4.68;100.00;101938.94;5073864;28;20235;-71
2021/10/10 00:24:40;;;;;;;5.30;4.80;;;;;;;4.75;100.00;101945.03;5073915;28;20205;-71
2021/10/10 00:27:05;;;;;;;4.57;3.80;;;;;;;4.76;100.00;101941.25;5074006;28;20319;-71
2021/10/10 00:29:30;;;;;;;8.90;4.33;;;;;;;4.73;100.00;101936.31;5074001;28;20220;-70
2021/10/10 00:31:58;;;;;;;5.57;4.70;;;;;;;4.69;100.00;101939.75;5074014;28;20177;-70
2021/10/10 00:34:24;;;;;;;4.33;3.93;;;;;;;4.70;100.00;101934.09;5073678;28;20166;-71
2021/10/10 00:36:49;;;;;;;4.73;4.33;;;;;;;4.74;100.00;101946.09;5072918;28;20285;-71
2021/10/10 00:39:14;;;;;;;8.67;4.33;;;;;;;4.79;100.00;101940.00;5073647;28;20189;-71
2021/10/10 00:41:40;;;;;;;9.30;4.73;;;;;;;4.79;100.00;101937.28;5073796;28;20257;-70
2021/10/10 00:44:10;;;;;;;4.33;3.93;;;;;;;4.85;100.00;101940.91;5091715;28;20228;-71
2021/10/10 00:46:36;;;;;;;4.70;4.20;;;;;;;4.91;100.00;101939.97;5091965;28;20212;-71
2021/10/10 00:49:02;;;;;;;4.90;4.43;;;;;;;4.94;100.00;101936.81;5073500;28;20205;-70
2021/10/10 00:51:31;;;;;;;5.07;4.60;;;;;;;4.97;100.00;101936.31;5091662;28;20302;-71
2021/10/10 00:53:57;;;;;;;5.27;3.87;;;;;;;4.97;100.00;101939.84;5091452;28;20182;-71
2021/10/10 00:56:23;;;;;;;4.50;3.97;;;;;;;4.81;100.00;101942.47;5073233;28;20217;-71
2021/10/10 00:58:49;;;;;;;8.60;4.03;;;;;;;4.83;100.00;101935.75;5073318;28;20652;-71
2021/10/10 01:01:16;;;;;;;4.33;3.87;;;;;;;4.62;100.00;101931.72;5073375;28;20181;-70
2021/10/10 01:03:41;;;;;;;6.53;4.43;;;;;;;4.18;100.00;101925.78;5072994;28;20231;-71
2021/10/10 01:06:06;;;;;;;4.93;4.50;;;;;;;4.35;100.00;101922.44;5091198;28;20615;-71
2021/10/10 01:08:32;;;;;;;4.80;4.03;;;;;;;4.44;100.00;101926.44;5073158;28;20758;-71
2021/10/10 01:10:57;;;;;;;5.30;4.80;;;;;;;4.04;100.00;101915.41;5091154;28;20170;-71
2021/10/10 01:13:23;;;;;;;5.30;3.90;;;;;;;3.65;100.00;101911.44;5073090;28;20613;-70
2021/10/10 01:15:50;;;;;;;5.13;4.63;;;;;;;3.97;100.00;101914.72;5090929;28;20201;-71
2021/10/10 01:18:22;;;;;;;6.17;4.43;;;;;;;3.98;100.00;101908.25;5091197;28;20214;-71
2021/10/10 01:20:48;;;;;;;4.47;4.07;;;;;;;3.89;100.00;101915.84;5090940;28;20177;-71
2021/10/10 01:23:14;;;;;;;4.67;4.20;;;;;;;4.10;100.00;101917.22;5091289;28;20166;-71
2021/10/10 01:25:40;;;;;;;6.60;4.33;;;;;;;4.02;100.00;101914.81;5072611;28;20181;-71
2021/10/10 01:28:06;;;;;;;6.43;4.47;;;;;;;3.85;100.00;101910.09;5091035;28;20184;-70
2021/10/10 01:30:32;;;;;;;5.07;4.57;;;;;;;3.52;100.00;101904.34;5072776;28;20173;-71
2021/10/10 01:32:58;;;;;;;5.20;4.70;;;;;;;3.83;100.00;101911.38;5072750;28;20747;-71
2021/10/10 01:35:24;;;;;;;4.57;4.17;;;;;;;4.17;100.00;101915.22;5090654;28;20169;-70
2021/10/10 01:37:49;;;;;;;4.90;4.23;;;;;;;4.31;100.00;101918.53;5091089;28;20177;-70
2021/10/10 01:40:15;;;;;;;6.70;6.17;;;;;;;4.01;100.00;101905.91;5090827;28;20243;-70
2021/10/10 01:42:40;;;;;;;6.47;4.93;;;;;;;3.58;100.00;101893.41;5072609;28;20177;-70
2021/10/10 01:45:14;;;;;;;4.37;3.83;;;;;;;3.70;100.00;101879.13;5072525;28;20184;-70
2021/10/10 01:47:39;;;;;;;4.67;4.20;;;;;;;3.94;100.00;101897.06;5072029;28;20180;-71
2021/10/10 01:50:05;;;;;;;6.80;4.17;;;;;;;4.04;100.00;101894.59;5072260;28;20264;-70
2021/10/10 01:52:31;;;;;;;5.00;4.60;;;;;;;3.95;100.00;101885.19;5090828;28;20162;-70
2021/10/10 01:54:56;;;;;;;5.23;4.70;;;;;;;3.47;100.00;101883.41;5072419;28;20181;-71
2021/10/10 01:57:22;;;;;;;5.57;5.10;;;;;;;3.19;100.00;101875.88;5072620;28;20445;-71
2021/10/10 01:59:47;;;;;;;5.13;4.63;;;;;;;3.12;100.00;101871.59;5091143;28;20174;-71
2021/10/10 02:02:12;;;;;;;5.80;4.17;;;;;;;3.54;100.00;101881.44;5090603;28;20553;-71
2021/10/10 02:04:38;;;;;;;5.10;4.70;;;;;;;3.73;100.00;101873.25;5090624;28;20581;-71
2021/10/10 02:07:03;;;;;;;4.27;3.73;;;;;;;3.78;100.00;101865.31;5072369;28;20246;-71
2021/10/10 02:09:28;;;;;;;5.03;4.43;;;;;;;3.72;100.00;101875.13;5091012;28;20173;-71
2021/10/10 02:11:54;;;;;;;4.50;4.10;;;;;;;3.24;100.00;101867.09;5090603;28;20617;-70
2021/10/10 02:14:19;;;;;;;4.80;4.40;;;;;;;3.32;100.00;101857.84;5072142;28;20173;-72
2021/10/10 02:16:44;;;;;;;4.37;3.97;;;;;;;3.60;100.00;101879.69;5090200;28;20201;-71
2021/10/10 02:19:10;;;;;;;4.40;4.00;;;;;;;3.72;100.00;101871.63;5072418;28;20302;-70
2021/10/10 02:21:35;;;;;;;5.80;4.87;;;;;;;3.50;100.00;101871.31;5072044;28;20230;-71
2021/10/10 02:24:00;;;;;;;6.53;4.33;;;;;;;3.76;100.00;101880.91;5090284;28;20170;-71
2021/10/10 02:26:26;;;;;;;4.50;4.10;;;;;;;3.65;100.00;101870.91;5090309;28;20189;-70
2021/10/10 02:28:51;;;;;;;4.67;4.27;;;;;;;3.48;100.00;101868.84;5072233;28;20551;-70
2021/10/10 02:31:17;;;;;;;5.33;4.33;;;;;;;3.41;100.00;101867.28;5090336;28;20291;-70
2021/10/10 02:33:42;;;;;;;4.23;3.83;;;;;;;3.49;100.00;101870.50;5090360;28;20170;-71
2021/10/10 02:36:08;;;;;;;5.90;4.23;;;;;;;3.62;100.00;101864.09;5090354;28;20633;-70
2021/10/10 02:38:33;;;;;;;4.30;3.43;;;;;;;3.72;100.00;101864.31;5072330;28;20180;-71
2021/10/10 02:40:58;;;;;;;4.63;4.23;;;;;;;3.73;100.00;101857.88;5090339;28;20277;-71
2021/10/10 02:43:24;;;;;;;4.07;3.70;;;;;;;3.83;100.00;101860.00;5072064;28;20178;-71
2021/10/10 02:45:49;;;;;;;5.20;4.13;;;;;;;3.85;100.00;101860.59;5071943;28;20197;-71
2021/10/10 02:48:15;;;;;;;4.23;3.83;;;;;;;3.93;100.00;101865.69;5090112;28;20253;-71
2021/10/10 02:50:40;;;;;;;7.53;4.03;;;;;;;4.10;100.00;101863.13;5071898;28;20273;-71
2021/10/10 02:53:06;;;;;;;5.20;3.67;;;;;;;4.20;100.00;101855.25;5068651;28;20570;-71
2021/10/10 02:55:31;;;;;;;3.83;3.30;;;;;;;4.20;100.00;101849.03;5088264;28;20712;-70
2021/10/10 02:57:56;;;;;;;4.17;3.77;;;;;;;4.11;100.00;101857.47;5089912;28;20660;-70
2021/10/10 03:00:22;;;;;;;4.00;3.60;;;;;;;4.02;100.00;101839.94;5092634;28;20178;-71
2021/10/10 03:02:47;;;;;;;4.57;4.17;;;;;;;4.09;100.00;101845.25;5075463;28;20173;-71
2021/10/10 03:05:13;;;;;;;4.23;3.77;;;;;;;4.10;100.00;101845.03;5075233;28;20178;-70
2021/10/10 03:07:38;;;;;;;3.97;3.57;;;;;;;4.03;100.00;101838.06;5093719;28;20170;-71
2021/10/10 03:10:04;;;;;;;5.50;4.33;;;;;;;3.95;100.00;101839.25;5075422;28;20173;-71
2021/10/10 03:12:29;;;;;;;4.17;3.70;;;;;;;3.95;100.00;101835.72;5075242;28;20182;-71
2021/10/10 03:14:55;;;;;;;4.43;3.80;;;;;;;3.80;100.00;101831.56;5093312;28;20257;-70
2021/10/10 03:17:20;;;;;;;4.70;3.80;;;;;;;3.81;100.00;101835.09;5093351;28;20611;-71
2021/10/10 03:19:45;;;;;;;3.83;3.47;;;;;;;3.81;100.00;101829.69;5075113;28;20231;-71
2021/10/10 03:22:11;;;;;;;7.37;3.20;;;;;;;3.94;100.00;101823.25;5075046;28;20228;-71
2021/10/10 03:24:36;;;;;;;4.17;3.77;;;;;;;3.93;100.00;101821.59;5093298;28;20823;-72
2021/10/10 03:27:02;;;;;;;5.03;3.97;;;;;;;4.04;100.00;101821.59;5075047;28;20174;-71
2021/10/10 03:29:27;;;;;;;4.37;3.97;;;;;;;4.15;100.00;101819.97;5074981;28;20178;-71
2021/10/10 03:31:52;;;;;;;3.60;3.33;;;;;;;3.75;100.00;101820.63;5093261;28;20178;-71
2021/10/10 03:34:18;;;;;;;5.37;3.90;;;;;;;3.95;100.00;101817.63;5093092;28;20174;-72
2021/10/10 03:36:43;;;;;;;8.20;3.83;;;;;;;3.92;100.00;101819.97;5074926;28;20209;-72
2021/10/10 03:39:08;;;;;;;3.67;3.30;;;;;;;3.80;100.00;101823.47;5092945;28;20185;-71
2021/10/10 03:41:34;;;;;;;4.03;3.60;;;;;;;3.73;100.00;101811.91;5093158;28;20186;-70
2021/10/10 03:43:59;;;;;;;3.87;3.07;;;;;;;3.75;100.00;101812.50;5076466;28;20209;-71
2021/10/10 03:46:24;;;;;;;3.60;3.30;;;;;;;3.68;100.00;101809.09;5104224;28;20170;-70
2021/10/10 03:48:49;;;;;;;4.07;3.63;;;;;;;3.60;100.00;101798.63;5077470;28;20178;-71
2021/10/10 03:51:15;;;;;;;4.03;3.27;;;;;;;3.56;100.00;101802.84;5075943;28;20182;-71
2021/10/10 03:54:10;;;;;;;3.43;3.13;;;;;;;3.44;100.00;101804.69;5075109;28;20189;-72
2021/10/10 03:56:25;;;;;;;4.10;3.67;;;;;;;3.19;100.00;101794.88;5092831;28;20274;-71
2021/10/10 03:58:51;;;;;;;5.17;4.37;;;;;;;3.32;100.00;101799.22;5074710;28;20178;-71
2021/10/10 04:01:16;;;;;;;5.00;3.30;;;;;;;3.23;100.00;101798.75;5074869;28;20181;-71
2021/10/10 04:03:42;;;;;;;4.90;4.43;;;;;;;3.42;100.00;101804.91;5074530;28;20688;-71
2021/10/10 04:06:07;;;;;;;3.80;3.43;;;;;;;3.49;100.00;101816.47;5092509;28;20188;-71
2021/10/10 04:08:33;;;;;;;4.13;3.73;;;;;;;3.62;100.00;101814.59;5092670;28;20174;-71
2021/10/10 04:10:58;;;;;;;4.83;4.43;;;;;;;3.59;100.00;101810.47;5073366;28;20205;-71
2021/10/10 04:13:23;;;;;;;4.67;4.10;;;;;;;3.54;100.00;101816.59;5074444;28;20174;-72
2021/10/10 04:15:49;;;;;;;3.70;3.33;;;;;;;3.45;100.00;101814.44;5074343;28;20260;-71
2021/10/10 04:18:14;;;;;;;5.23;4.33;;;;;;;3.35;100.00;101801.50;5092639;28;20170;-73
2021/10/10 04:20:39;;;;;;;4.00;3.40;;;;;;;3.09;100.00;101804.56;5092291;28;20181;-71
2021/10/10 04:23:05;;;;;;;7.83;6.50;;;;;;;3.23;100.00;101803.31;5074384;28;20174;-71
2021/10/10 04:25:31;;;;;;;16.77;11.03;;;;;;;3.14;100.00;101810.91;5092279;28;20641;-71
2021/10/10 04:27:56;;;;;;;8.27;7.43;;;;;;;3.24;100.00;101813.06;5074216;28;20204;-71
2021/10/10 04:30:21;;;;;;;9.23;7.67;;;;;;;3.06;100.00;101808.53;5092044;28;20205;-71
2021/10/10 04:32:47;;;;;;;5.90;4.67;;;;;;;3.04;100.00;101807.09;5092023;28;20199;-71
2021/10/10 04:35:13;;;;;;;4.87;4.43;;;;;;;3.05;100.00;101809.59;5091890;28;20237;-72
2021/10/10 04:37:39;;;;;;;4.40;4.00;;;;;;;3.07;100.00;101809.38;5091914;28;20205;-71
2021/10/10 04:40:05;;;;;;;4.73;4.33;;;;;;;2.65;100.00;101801.16;5084053;28;20559;-72
2021/10/10 04:42:34;;;;;;;4.83;4.43;;;;;;;2.71;100.00;101802.94;5091427;28;20195;-71
2021/10/10 04:44:59;;;;;;;4.77;4.27;;;;;;;2.64;100.00;101796.81;5091253;28;20215;-71
2021/10/10 04:47:25;;;;;;;4.57;4.00;;;;;;;2.63;100.00;101797.88;5087994;28;20264;-71
2021/10/10 04:49:50;;;;;;;5.80;4.30;;;;;;;2.88;100.00;101803.97;5091614;28;20273;-71
2021/10/10 04:52:15;;;;;;;4.83;4.33;;;;;;;3.00;100.00;101804.03;5091488;28;20178;-71
2021/10/10 04:54:42;;;;;;;4.80;4.23;;;;;;;2.04;100.00;101781.25;5091691;28;20170;-71
2021/10/10 04:57:08;;;;;;;4.30;3.90;;;;;;;1.95;100.00;101785.28;5091594;28;20201;-72
2021/10/10 04:59:33;;;;;;;4.73;4.33;;;;;;;2.06;100.00;101789.13;5091438;28;20626;-72
2021/10/10 05:01:58;;;;;;;5.40;4.27;;;;;;;2.25;100.00;101789.97;5090012;28;20558;-71
2021/10/10 05:04:24;;;;;;;4.77;4.10;;;;;;;2.25;100.00;101788.09;5090117;28;20621;-71
2021/10/10 05:06:49;;;;;;;3.60;3.20;;;;;;;2.15;100.00;101782.38;5089916;28;20664;-71
2021/10/10 05:09:14;;;;;;;4.13;3.80;;;;;;;2.17;100.00;101774.91;5091089;28;20193;-71
2021/10/10 05:11:40;;;;;;;3.57;3.27;;;;;;;2.24;100.00;101769.44;5091107;28;20174;-71
2021/10/10 05:14:05;;;;;;;4.37;3.97;;;;;;;2.27;100.00;101779.78;5090998;28;20177;-72
2021/10/10 05:16:30;;;;;;;4.90;3.67;;;;;;;2.30;100.00;101769.38;5072658;28;20202;-71
2021/10/10 05:18:56;;;;;;;4.70;4.30;;;;;;;2.45;100.00;101776.25;5091710;28;20182;-72
2021/10/10 05:21:21;;;;;;;4.10;3.70;;;;;;;2.43;100.00;101772.97;5091238;28;20635;-71
2021/10/10 05:23:46;;;;;;;3.67;3.37;;;;;;;2.62;100.00;101783.56;5072427;28;20216;-71
2021/10/10 05:26:12;;;;;;;4.30;3.83;;;;;;;2.66;100.00;101783.91;5072602;28;20186;-71
2021/10/10 05:28:38;;;;;;;4.43;3.97;;;;;;;2.71;100.00;101784.06;5072754;28;20174;-72
2021/10/10 05:31:03;;;;;;;3.17;2.90;;;;;;;2.62;100.00;101783.56;5090608;28;20257;-71
2021/10/10 05:33:28;;;;;;;4.67;4.20;;;;;;;2.48;100.00;101776.66;5072688;28;20247;-71
2021/10/10 05:35:54;;;;;;;3.80;3.50;;;;;;;2.42;100.00;101774.03;5072260;28;20688;-71
2021/10/10 05:38:19;;;;;;;4.53;3.60;;;;;;;2.32;100.00;101775.38;5072741;28;20169;-70
2021/10/10 05:40:44;;;;;;;3.23;2.70;;;;;;;2.29;100.00;101767.72;5090722;28;20639;-71
2021/10/10 05:43:10;;;;;;;4.17;3.77;;;;;;;2.23;100.00;101774.03;5090824;28;20550;-71
2021/10/10 05:45:35;;;;;;;6.90;4.37;;;;;;;2.35;100.00;101783.03;5072356;28;20585;-72
2021/10/10 05:48:01;;;;;;;5.90;4.60;;;;;;;2.43;100.00;101775.66;5072701;28;20202;-72
2021/10/10 05:50:26;;;;;;;8.00;4.07;;;;;;;2.53;100.00;101776.81;5090573;28;20188;-71
2021/10/10 05:52:51;;;;;;;4.40;4.00;;;;;;;2.64;100.00;101778.75;5090647;28;20174;-72
2021/10/10 05:55:21;;;;;;;4.80;4.40;;;;;;;2.59;100.00;101777.75;5090676;28;20613;-71
2021/10/10 05:57:48;;;;;;;6.07;4.53;;;;;;;2.63;100.00;101774.41;5090782;28;20201;-71
2021/10/10 06:00:16;;;;;;;4.97;4.47;;;;;;;2.69;100.00;101772.66;5090427;28;20182;-72
2021/10/10 06:02:42;;;;;;;5.07;4.60;;;;;;;2.70;100.00;101766.22;5072192;28;20177;-71
2021/10/10 06:05:10;;;;;;;4.57;4.17;;;;;;;2.77;100.00;101768.84;5072055;28;20201;-71
2021/10/10 06:07:36;;;;;;;3.43;3.13;;;;;;;2.68;100.00;101769.16;5090478;28;20189;-71
2021/10/10 06:10:02;;;;;;;4.67;3.97;;;;;;;2.66;100.00;101767.72;5072321;28;20273;-71
2021/10/10 06:12:28;;;;;;;4.43;4.03;;;;;;;2.76;100.00;101773.44;5072300;28;20383;-72
2021/10/10 06:14:53;;;;;;;3.63;3.33;;;;;;;2.77;100.00;101758.88;5071905;28;20178;-71
2021/10/10 06:17:19;;;;;;;4.57;4.13;;;;;;;2.87;100.00;101767.25;5090490;28;20201;-72
2021/10/10 06:19:45;;;;;;;4.50;3.80;;;;;;;2.97;100.00;101775.63;5090325;28;20269;-71
2021/10/10 06:22:10;;;;;;;4.20;3.90;;;;;;;3.02;100.00;101763.31;5072006;28;20200;-72
2021/10/10 06:24:36;;;;;;;4.37;3.97;;;;;;;3.08;100.00;101765.94;5090005;28;20260;-71
2021/10/10 06:27:02;;;;;;;4.80;4.07;;;;;;;3.18;100.00;101770.75;5072053;28;20184;-71
2021/10/10 06:29:27;;;;;;;3.63;3.13;;;;;;;3.26;100.00;101759.66;5071948;28;20170;-71
2021/10/10 06:31:53;;;;;;;4.20;3.60;;;;;;;3.38;100.00;101765.91;5072095;28;20545;-72
2021/10/10 06:34:18;;;;;;;4.47;4.00;;;;;;;3.31;100.00;101764.34;5072765;28;20422;-72
2021/10/10 06:36:44;;;;;;;5.67;4.37;;;;;;;3.33;100.00;101759.53;5076094;28;20683;-71
2021/10/10 06:39:09;;;;;;;4.43;4.03;;;;;;;3.39;100.00;101767.56;5094258;28;20252;-72
2021/10/10 06:41:34;;;;;;;3.27;2.97;;;;;;;3.48;100.00;101760.78;5075864;28;20174;-71
2021/10/10 06:44:00;;;;;;;6.40;4.20;;;;;;;3.51;100.00;101757.63;5075561;28;20268;-71
2021/10/10 06:46:26;;;;;;;4.30;3.90;;;;;;;3.51;100.00;101767.59;5075823;28;20284;-74
2021/10/10 06:48:51;;;;;;;5.37;4.80;;;;;;;3.57;100.00;101763.94;5075608;28;20559;-72
2021/10/10 06:51:16;;;;;;;4.57;4.17;;;;;;;3.67;100.00;101764.22;5075936;28;20186;-71
2021/10/10 06:53:42;;;;;;;5.07;4.57;;;;;;;3.82;100.00;101771.88;5075403;28;20284;-73
2021/10/10 06:56:07;;;;;;;5.23;4.70;;;;;;;3.83;100.00;101770.81;5093794;28;20197;-72
2021/10/10 06:58:33;;;;;;;6.97;4.43;;;;;;;3.94;100.00;101766.47;5093813;28;20178;-71
2021/10/10 07:00:59;;;;;;;5.27;4.77;;;;;;;4.06;100.00;101773.53;5075595;28;20238;-71
2021/10/10 07:03:24;;;;;;;7.13;3.77;;;;;;;4.12;100.00;101779.88;5093762;28;20170;-71
2021/10/10 07:05:49;;;;;;;7.80;4.80;;;;;;;4.23;100.00;101780.94;5075331;28;20192;-71
2021/10/10 07:08:15;;;;;;;10.67;4.30;;;;;;;4.30;100.00;101773.50;5075475;28;20173;-73
2021/10/10 07:10:40;;;;;;;5.77;4.50;;;;;;;4.37;100.00;101776.94;5075320;28;20697;-73
2021/10/10 07:13:06;;;;;;;4.53;4.13;;;;;;;4.46;100.00;101759.25;5093327;28;20615;-72
2021/10/10 07:15:32;;;;;;;4.50;4.10;;;;;;;4.55;100.00;101775.94;5075015;28;20174;-72
2021/10/10 07:18:04;;;;;;;4.03;3.57;;;;;;;4.59;100.00;101779.81;5093470;28;20197;-72
2021/10/10 07:20:50;;;;;;;7.27;4.13;;;;;;;4.65;100.00;101774.28;5093599;28;20189;-73
2021/10/10 07:23:31;;;;;;;4.73;4.23;;;;;;;4.60;100.00;101767.94;5093242;28;20178;-73
2021/10/10 07:25:57;;;;;;;5.10;4.27;;;;;;;4.64;100.00;101783.47;5074963;28;20570;-73
2021/10/10 07:28:23;;;;;;;4.23;3.67;;;;;;;4.65;100.00;101776.19;5075546;28;20185;-73
2021/10/10 07:30:48;;;;;;;4.87;4.37;;;;;;;4.73;100.00;101781.19;5074915;28;20189;-74
2021/10/10 07:33:18;;;;;;;4.30;3.90;;;;;;;4.82;100.00;101770.81;5093112;28;20653;-73
2021/10/10 07:35:44;;;;;;;5.57;4.87;;;;;;;4.96;100.00;101781.13;5074459;28;20178;-73
2021/10/10 07:38:09;;;;;;;9.93;4.30;;;;;;;5.06;100.00;101784.06;5093054;28;20534;-73
2021/10/10 07:40:35;;;;;;;7.23;5.50;;;;;;;5.18;100.00;101792.09;5074733;28;20600;-73
2021/10/10 07:43:00;;;;;;;5.47;4.97;;;;;;;5.26;100.00;101786.31;5075038;28;20419;-73
2021/10/10 07:45:26;;;;;;;5.13;4.47;;;;;;;5.35;98.96;101794.84;5092318;28;20188;-73
2021/10/10 07:47:52;;;;;;;5.90;5.30;;;;;;;5.42;98.67;101794.72;5092935;28;20174;-73
2021/10/10 07:50:20;;;;;;;5.13;4.27;;;;;;;5.49;98.36;101792.66;5092950;28;20178;-73
2021/10/10 07:52:46;;;;;;;5.87;5.20;;;;;;;5.45;97.85;101797.75;5074765;28;20721;-73
2021/10/10 07:55:11;;;;;;;5.73;5.20;;;;;;;5.26;100.00;101791.72;5092590;28;20256;-73
2021/10/10 07:57:37;;;;;;;7.57;5.60;;;;;;;5.23;100.00;101796.81;5074678;28;20304;-73
2021/10/10 08:00:04;;;;;;;5.60;5.10;;;;;;;5.31;100.00;101796.41;5092749;28;20247;-73
2021/10/10 08:02:31;;;;;;;5.87;5.00;;;;;;;5.33;100.00;101802.41;5074621;28;20181;-72
2021/10/10 08:04:57;;;;;;;5.63;4.73;;;;;;;5.43;100.00;101809.91;5074267;28;20177;-73
2021/10/10 08:07:22;;;;;;;6.40;5.50;;;;;;;5.51;100.00;101820.38;5092625;28;20247;-75
2021/10/10 08:09:48;;;;;;;5.40;4.90;;;;;;;5.71;100.00;101809.88;5074510;28;20652;-73
2021/10/10 08:12:13;;;;;;;7.07;5.57;;;;;;;5.89;100.00;101812.34;5074473;28;20629;-76
2021/10/10 08:14:39;;;;;;;6.03;5.40;;;;;;;6.07;100.00;101811.28;5074207;28;20205;-74
2021/10/10 08:17:04;;;;;;;8.50;4.53;;;;;;;6.20;100.00;101815.56;5092606;28;20724;-73
2021/10/10 08:19:29;;;;;;;5.53;5.03;;;;;;;6.42;98.03;101811.00;5074325;28;20617;-73
2021/10/10 08:21:55;;;;;;;5.57;5.07;;;;;;;6.43;98.06;101803.69;5092318;28;20670;-73
2021/10/10 08:24:22;;;;;;;8.83;5.43;;;;;;;6.47;98.55;101808.38;5073892;28;20200;-73
2021/10/10 08:26:47;;;;;;;4.87;4.47;;;;;;;6.52;99.75;101803.03;5092293;28;20672;-75
2021/10/10 08:29:14;;;;;;;8.00;4.43;;;;;;;6.54;99.77;101805.47;5092366;28;20244;-74
2021/10/10 08:31:40;;;;;;;7.83;4.93;;;;;;;6.59;100.00;101802.00;5073724;28;20180;-72
2021/10/10 08:34:05;;;;;;;6.63;5.43;;;;;;;6.53;99.66;101801.94;5069213;28;20186;-74
2021/10/10 08:36:31;;;;;;;7.27;5.23;;;;;;;6.44;99.97;101797.19;5091689;28;20258;-72
2021/10/10 08:38:56;;;;;;;5.83;5.23;;;;;;;6.50;99.99;101794.28;5091884;28;20170;-73
2021/10/10 08:41:28;;;;;;;6.93;5.47;;;;;;;6.53;99.54;101785.66;5091777;28;20169;-72
2021/10/10 08:43:56;;;;;;;6.20;5.60;;;;;;;6.68;100.00;101797.78;5092024;28;20599;-73
2021/10/10 08:46:24;;;;;;;5.93;5.03;;;;;;;7.04;97.26;101797.13;5091915;28;20170;-73
2021/10/10 08:48:52;;;;;;;6.70;6.10;;;;;;;7.21;95.73;101793.50;5091961;28;20200;-72
2021/10/10 08:51:19;;;;;;;9.80;5.30;;;;;;;7.39;95.37;101791.28;5091759;28;20202;-73
2021/10/10 08:53:44;;;;;;;7.40;6.07;;;;;;;7.59;95.47;101797.97;5092007;28;20231;-72
2021/10/10 08:56:11;;;;;;;5.90;5.40;;;;;;;7.75;93.88;101792.41;5073463;28;20210;-73
2021/10/10 08:58:41;;;;;;;6.60;6.00;;;;;;;7.89;93.18;101798.25;5072944;28;20181;-73
2021/10/10 09:01:16;;;;;;;10.37;5.33;;;;;;;8.00;92.04;101793.72;5091742;28;20228;-73
2021/10/10 09:03:54;;;;;;;5.60;5.10;;;;;;;8.11;90.00;101789.97;5091672;28;20193;-73
2021/10/10 09:06:19;;;;;;;5.13;4.53;;;;;;;8.38;89.45;101798.06;5091499;28;20725;-72
2021/10/10 09:08:44;;;;;;;7.40;6.73;;;;;;;8.45;87.20;101798.66;5073379;28;20265;-72
2021/10/10 09:11:11;;;;;;;6.13;5.10;;;;;;;8.56;87.75;101799.53;5073351;28;20177;-72
2021/10/10 09:13:39;;;;;;;5.73;4.90;;;;;;;8.68;86.93;101796.56;5091516;28;20360;-72
2021/10/10 09:16:06;;;;;;;8.13;5.90;;;;;;;8.74;84.75;101801.81;5089557;28;20254;-72
2021/10/10 09:18:35;;;;;;;5.03;4.63;;;;;;;8.88;84.57;101797.50;5068152;28;20630;-72
2021/10/10 09:21:28;;;;;;;5.73;4.97;;;;;;;9.06;84.18;101811.72;5091127;28;20213;-72
2021/10/10 09:23:56;;;;;;;6.13;5.63;;;;;;;9.15;86.84;101805.50;5091126;28;20359;-73
2021/10/10 09:26:23;;;;;;;6.47;5.73;;;;;;;9.34;88.46;101816.72;5073029;28;20177;-72
2021/10/10 09:28:49;;;;;;;5.60;4.97;;;;;;;9.31;86.97;101798.19;5072790;28;20235;-72
2021/10/10 09:31:15;;;;;;;5.47;4.90;;;;;;;9.18;86.46;101798.69;5072872;28;20535;-72
2021/10/10 09:33:55;;;;;;;5.60;5.10;;;;;;;9.22;86.81;101803.31;5090863;28;20227;-72
2021/10/10 09:36:27;;;;;;;5.93;5.33;;;;;;;9.35;87.72;101802.00;5090923;28;20707;-72
2021/10/10 09:39:07;;;;;;;5.30;4.80;;;;;;;9.53;87.40;101803.38;5091081;28;20244;-72
2021/10/10 09:41:47;;;;;;;5.57;5.07;;;;;;;9.63;84.01;101808.03;5091082;28;20169;-72
2021/10/10 09:44:49;;;;;;;5.93;5.43;;;;;;;9.73;82.89;101802.59;5091202;28;20181;-72
2021/10/10 09:47:07;;;;;;;5.30;4.80;;;;;;;9.84;81.95;101805.06;5086105;28;20540;-72
2021/10/10 09:49:33;;;;;;;5.60;5.10;;;;;;;9.90;79.70;101803.16;5072090;28;20467;-73
2021/10/10 09:52:07;;;;;;;5.67;5.17;;;;;;;10.03;81.58;101799.88;5088866;28;20224;-72
2021/10/10 09:54:54;;;;;;;5.53;5.03;;;;;;;10.08;82.81;101794.41;5078932;28;20691;-73
2021/10/10 09:57:24;;;;;;;5.60;5.10;;;;;;;10.23;81.66;101795.50;5087804;28;20202;-74
2021/10/10 09:59:50;;;;;;;10.40;5.10;;;;;;;10.36;81.09;101794.94;5091130;28;20213;-73
2021/10/10 10:02:17;;;;;;;6.27;5.77;;;;;;;10.44;81.49;101791.66;5091124;28;20255;-73
2021/10/10 10:04:47;;;;;;;6.13;5.63;;;;;;;10.50;78.83;101790.53;5072632;28;20197;-73
2021/10/10 10:07:14;;;;;;;5.63;5.13;;;;;;;10.60;78.14;101778.75;5073014;28;20219;-73
2021/10/10 10:09:40;;;;;;;6.07;5.57;;;;;;;10.68;77.76;101775.44;5098666;28;20233;-73
2021/10/10 10:12:07;;;;;;;6.20;5.37;;;;;;;10.87;77.12;101776.47;5104233;28;20197;-73
2021/10/10 10:14:33;;;;;;;10.57;5.13;;;;;;;10.99;79.00;101776.94;5100043;28;20436;-73
2021/10/10 10:17:01;;;;;;;7.43;5.77;;;;;;;11.05;75.69;101769.53;5090997;28;20201;-73
2021/10/10 10:19:28;;;;;;;6.00;5.40;;;;;;;11.13;74.33;101771.66;5094353;28;20679;-74
2021/10/10 10:21:54;;;;;;;6.50;5.90;;;;;;;11.24;72.46;101772.41;5095020;28;20174;-73
2021/10/10 10:24:21;;;;;;;6.53;4.27;;;;;;;11.53;71.61;101788.91;5095014;28;20173;-73
2021/10/10 10:26:47;;;;;;;4.10;3.73;;;;;;;11.60;69.75;101787.50;5094682;28;20236;-73
2021/10/10 10:29:27;;;;;;;4.73;4.33;;;;;;;11.80;70.51;101792.03;5094610;28;20192;-73
2021/10/10 10:31:54;;;;;;;4.50;3.87;;;;;;;11.99;67.35;101780.34;5092670;28;20185;-73
2021/10/10 10:34:23;;;;;;;4.27;3.87;;;;;;;12.03;67.97;101782.25;5082980;28;20169;-73
2021/10/10 10:36:55;;;;;;;4.73;4.33;;;;;;;12.01;67.05;101778.19;5093862;28;20186;-73
2021/10/10 10:39:48;;;;;;;4.27;3.87;;;;;;;12.24;68.47;101790.25;5093372;28;20170;-73
2021/10/10 10:42:14;;;;;;;3.90;3.60;;;;;;;12.47;66.42;101790.28;5089438;28;20182;-77
2021/10/10 10:44:43;;;;;;;3.37;3.07;;;;;;;12.56;59.07;101775.94;5093469;28;20196;-72
2021/10/10 10:47:17;;;;;;;4.03;3.17;;;;;;;12.68;59.86;101782.66;5094069;28;20169;-73
2021/10/10 10:49:52;;;;;;;3.57;3.27;;;;;;;13.02;61.91;101785.25;5094906;28;20165;-73
2021/10/10 10:52:38;;;;;;;3.10;2.50;;;;;;;13.37;57.75;101788.63;5094166;28;20191;-74
2021/10/10 10:55:24;;;;;;;3.30;2.70;;;;;;;13.48;57.95;101787.38;5075879;28;20169;-74
2021/10/10 10:58:10;;;;;;;2.90;2.70;;;;;;;13.57;53.89;101787.50;5093907;28;20217;-73
2021/10/10 11:00:40;;;;;;;3.53;2.53;;;;;;;13.65;53.81;101782.16;5075618;28;20188;-77
2021/10/10 11:03:24;;;;;;;3.07;2.77;;;;;;;13.74;53.84;101785.00;5075778;28;20234;-74
2021/10/10 11:06:05;;;;;;;3.27;2.90;;;;;;;13.76;52.82;101771.00;5093599;28;20229;-73
2021/10/10 11:08:34;;;;;;;2.77;2.43;;;;;;;13.82;52.23;101775.28;5075567;28;20169;-73
2021/10/10 11:11:23;;;;;;;6.00;3.20;;;;;;;13.86;53.82;101770.81;5093731;28;20253;-73
2021/10/10 11:13:59;;;;;;;4.03;3.10;;;;;;;13.85;56.42;101763.69;5093473;28;20208;-73
2021/10/10 11:16:25;;;;;;;3.23;3.00;;;;;;;13.65;54.67;101759.34;5093567;28;20196;-73
2021/10/10 11:19:02;;;;;;;3.77;3.07;;;;;;;13.65;54.49;101749.19;5074163;28;20633;-73
2021/10/10 11:21:42;;;;;;;3.83;2.37;;;;;;;13.83;53.05;101760.44;5092592;28;20189;-74
2021/10/10 11:24:11;;;;;;;2.63;2.43;;;;;;;14.11;51.74;101756.63;5093597;28;20188;-73
2021/10/10 11:26:38;;;;;;;4.43;2.40;;;;;;;14.37;50.43;101759.72;5088195;28;20170;-73